createdAt,value
2017-11-30T04:41:45.860Z,7.47
2017-11-30T04:44:12.639Z,8.40
2017-11-30T04:46:39.412Z,7.93
2017-11-30T04:49:06.256Z,6.87
2017-11-30T04:51:33.069Z,8.63
2017-11-30T04:54:00.778Z,7.18
2017-11-30T04:56:27.636Z,6.80
2017-11-30T04:58:54.479Z,7.28
2017-11-30T05:01:21.239Z,6.28
2017-11-30T05:03:48.062Z,8.30
2017-11-30T05:06:14.842Z,9.70
2017-11-30T05:08:41.619Z,6.67
2017-11-30T05:11:08.424Z,8.47
2017-11-30T05:13:35.185Z,9.17
2017-11-30T05:16:01.961Z,6.68
2017-11-30T05:18:28.745Z,7.97
2017-11-30T05:20:55.550Z,7.97
2017-11-30T05:23:22.295Z,8.55
2017-11-30T05:25:49.142Z,9.18
2017-11-30T05:28:15.955Z,6.80
2017-11-30T05:30:42.752Z,6.75
2017-11-30T05:33:09.532Z,6.60
2017-11-30T05:35:36.300Z,7.63
2017-11-30T05:38:03.076Z,8.10
2017-11-30T05:40:29.894Z,8.57
2017-11-30T05:42:56.653Z,8.57
2017-11-30T05:45:23.423Z,8.20
2017-11-30T05:47:50.217Z,8.23
2017-11-30T05:50:16.960Z,7.53
2017-11-30T05:52:43.725Z,8.80
2017-11-30T05:55:10.602Z,6.73
2017-11-30T05:57:37.347Z,9.23
2017-11-30T06:00:04.127Z,7.20
2017-11-30T06:02:30.909Z,8.73
2017-11-30T06:04:57.650Z,7.27
2017-11-30T06:07:24.451Z,8.65
2017-11-30T06:09:51.261Z,7.95
2017-11-30T06:12:18.070Z,10.07
2017-11-30T06:14:44.820Z,8.20
2017-11-30T06:17:11.650Z,9.57
2017-11-30T06:19:38.423Z,9.07
2017-11-30T06:22:05.195Z,11.30
2017-11-30T06:24:32.001Z,9.70
2017-11-30T06:26:58.774Z,10.10
2017-11-30T06:29:25.539Z,12.57
2017-11-30T06:31:52.359Z,11.23
2017-11-30T06:34:19.213Z,12.05
2017-11-30T06:36:45.968Z,12.37
2017-11-30T06:39:12.771Z,13.03
2017-11-30T06:41:39.564Z,11.17
2017-11-30T06:44:06.347Z,12.43
2017-11-30T06:46:33.157Z,11.77
2017-11-30T06:48:59.945Z,14.23
2017-11-30T06:51:26.744Z,15.83
2017-11-30T06:53:53.546Z,12.70
2017-11-30T06:56:20.465Z,13.43
2017-11-30T06:58:47.208Z,13.83
2017-11-30T07:01:14.032Z,15.93
2017-11-30T07:03:40.827Z,13.15
2017-11-30T07:06:07.595Z,14.30
2017-11-30T07:08:34.401Z,13.67
2017-11-30T07:11:01.176Z,13.87
2017-11-30T07:13:27.927Z,11.27
2017-11-30T07:15:54.720Z,13.63
2017-11-30T07:18:21.518Z,12.13
2017-11-30T07:20:48.276Z,12.43
2017-11-30T07:23:15.077Z,12.20
2017-11-30T07:25:41.828Z,14.40
2017-11-30T07:28:08.588Z,13.83
2017-11-30T07:30:35.383Z,12.40
2017-11-30T07:33:02.187Z,11.30
2017-11-30T07:35:28.971Z,9.40
2017-11-30T07:37:55.816Z,14.23
2017-11-30T07:40:22.614Z,13.07
2017-11-30T07:42:49.384Z,15.50
2017-11-30T07:45:16.215Z,14.17
2017-11-30T07:47:43.010Z,14.30
2017-11-30T07:50:09.776Z,15.73
2017-11-30T07:52:36.591Z,13.77
2017-11-30T07:55:03.383Z,14.47
2017-11-30T07:57:30.151Z,12.47
2017-11-30T07:59:56.960Z,14.00
2017-11-30T08:02:23.739Z,15.23
2017-11-30T08:04:50.526Z,15.60
2017-11-30T08:07:17.305Z,16.87
2017-11-30T08:09:44.113Z,13.63
2017-11-30T08:12:10.895Z,12.57
2017-11-30T08:14:37.742Z,15.43
2017-11-30T08:17:04.531Z,14.77
2017-11-30T08:19:31.315Z,15.77
2017-11-30T08:21:58.109Z,13.87
2017-11-30T08:24:24.856Z,12.33
2017-11-30T08:26:51.604Z,12.90
2017-11-30T08:29:18.419Z,14.90
2017-11-30T08:31:45.200Z,16.47
2017-11-30T08:34:11.999Z,22.80
2017-11-30T08:36:38.800Z,15.70
2017-11-30T08:39:05.584Z,14.47
2017-11-30T08:41:32.405Z,12.77
2017-11-30T08:43:59.262Z,14.43
2017-11-30T08:46:26.026Z,16.97
2017-11-30T08:48:52.791Z,13.90
2017-11-30T08:51:19.581Z,13.00
2017-11-30T08:53:46.362Z,10.23
2017-11-30T08:56:13.176Z,12.63
2017-11-30T08:58:39.970Z,13.60
2017-11-30T09:01:06.762Z,13.60
2017-11-30T09:03:33.531Z,11.70
2017-11-30T09:06:00.335Z,15.90
2017-11-30T09:08:27.094Z,13.57
2017-11-30T09:10:53.832Z,13.47
2017-11-30T09:13:20.670Z,11.87
2017-11-30T09:15:47.447Z,14.17
2017-11-30T09:18:14.236Z,13.63
2017-11-30T09:20:41.036Z,14.20
2017-11-30T09:23:07.784Z,13.57
2017-11-30T09:25:34.606Z,12.77
2017-11-30T09:28:01.403Z,14.50
2017-11-30T09:30:28.185Z,13.20
2017-11-30T09:32:54.964Z,13.33
2017-11-30T09:35:21.756Z,14.77
2017-11-30T09:37:48.505Z,12.17
2017-11-30T09:40:15.280Z,11.83
2017-11-30T09:42:42.065Z,15.40
2017-11-30T09:45:08.832Z,14.73
2017-11-30T09:47:35.603Z,16.30
2017-11-30T09:50:02.428Z,10.97
2017-11-30T09:52:29.179Z,14.90
2017-11-30T09:54:56.043Z,13.00
2017-11-30T09:57:22.888Z,11.47
2017-11-30T09:59:49.680Z,12.90
2017-11-30T10:02:16.472Z,12.87
2017-11-30T10:04:43.361Z,15.10
2017-11-30T10:07:10.124Z,10.77
2017-11-30T10:09:36.891Z,10.50
2017-11-30T10:12:03.768Z,31.70
2017-11-30T10:14:30.562Z,12.53
2017-11-30T10:16:57.315Z,9.47
2017-11-30T10:19:24.119Z,7.77
2017-11-30T10:21:50.900Z,8.03
2017-11-30T10:24:17.653Z,9.00
2017-11-30T10:26:44.498Z,9.50
2017-11-30T10:29:11.252Z,10.57
2017-11-30T10:31:38.040Z,8.47
2017-11-30T10:34:04.827Z,7.97
2017-11-30T10:36:31.610Z,8.97
2017-11-30T10:38:58.373Z,9.40
2017-11-30T10:41:25.177Z,9.67
2017-11-30T10:43:51.952Z,8.83
2017-11-30T10:46:18.696Z,9.90
2017-11-30T10:48:45.500Z,7.83
2017-11-30T10:51:12.243Z,9.97
2017-11-30T10:53:39.014Z,9.20
2017-11-30T10:56:05.846Z,10.13
2017-11-30T10:58:32.609Z,9.33
2017-11-30T11:00:59.377Z,11.70
2017-11-30T11:03:26.180Z,8.90
2017-11-30T11:05:52.933Z,7.93
2017-11-30T11:08:19.704Z,9.03
2017-11-30T11:10:46.486Z,9.40
2017-11-30T11:13:13.229Z,8.40
2017-11-30T11:15:39.972Z,7.00
2017-11-30T11:18:06.768Z,6.43
2017-11-30T11:20:33.581Z,9.97
2017-11-30T11:23:00.328Z,7.43
2017-11-30T11:25:27.155Z,7.80
2017-11-30T11:27:53.920Z,7.20
2017-11-30T11:30:20.678Z,8.10
2017-11-30T11:32:47.457Z,9.70
2017-11-30T11:35:14.219Z,11.30
2017-11-30T11:37:40.989Z,7.90
2017-11-30T11:40:07.783Z,7.47
2017-11-30T11:42:34.544Z,7.83
2017-11-30T11:45:01.307Z,7.77
2017-11-30T11:47:28.098Z,9.50
2017-11-30T11:49:54.867Z,8.50
2017-11-30T11:52:21.647Z,10.03
2017-11-30T11:54:48.474Z,25.30
2017-11-30T11:57:15.234Z,8.40
2017-11-30T11:59:41.999Z,5.77
2017-11-30T12:02:08.781Z,8.00
2017-11-30T12:04:35.549Z,8.00
2017-11-30T12:07:02.326Z,6.93
2017-11-30T12:09:29.152Z,7.97
2017-11-30T12:11:55.908Z,6.50
2017-11-30T12:14:22.689Z,7.20
2017-11-30T12:16:49.492Z,8.07
2017-11-30T12:19:16.254Z,6.90
2017-11-30T12:21:42.992Z,6.40
2017-11-30T12:24:09.833Z,6.70
2017-11-30T12:26:36.627Z,8.00
2017-11-30T12:29:03.378Z,6.87
2017-11-30T12:31:30.219Z,9.33
2017-11-30T12:33:56.996Z,7.70
2017-11-30T12:36:23.783Z,8.40
2017-11-30T12:38:50.596Z,7.37
2017-11-30T12:41:17.380Z,9.20
2017-11-30T12:43:44.155Z,7.27
2017-11-30T12:46:10.962Z,9.20
2017-11-30T12:48:37.723Z,9.00
2017-11-30T12:51:04.484Z,8.87
2017-11-30T12:53:31.276Z,8.00
2017-11-30T12:55:58.024Z,7.20
2017-11-30T12:58:24.790Z,7.77
2017-11-30T13:00:51.602Z,7.67
2017-11-30T13:03:18.409Z,7.83
2017-11-30T13:05:45.198Z,8.00
2017-11-30T13:08:11.992Z,9.07
2017-11-30T13:10:38.816Z,8.53
2017-11-30T13:13:05.613Z,8.20
2017-11-30T13:15:32.430Z,8.23
2017-11-30T13:17:59.202Z,8.57
2017-11-30T13:20:26.748Z,8.90
2017-11-30T13:22:53.575Z,8.27
2017-11-30T13:25:20.356Z,8.70
2017-11-30T13:27:47.136Z,10.10
2017-11-30T13:30:13.979Z,10.55
2017-11-30T13:32:40.783Z,10.90
2017-11-30T13:35:07.586Z,7.67
2017-11-30T13:37:34.425Z,10.30
2017-11-30T13:40:01.179Z,9.10
2017-11-30T13:42:27.924Z,10.47
2017-11-30T13:44:54.728Z,9.30
2017-11-30T13:47:21.485Z,7.70
2017-11-30T13:49:48.239Z,9.07
2017-11-30T13:52:15.054Z,9.73
2017-11-30T13:54:41.851Z,8.57
2017-11-30T13:57:08.633Z,8.67
2017-11-30T13:59:35.414Z,7.37
2017-11-30T14:02:02.177Z,8.17
2017-11-30T14:04:28.939Z,7.70
2017-11-30T14:06:55.789Z,8.33
2017-11-30T14:09:22.557Z,9.73
2017-11-30T14:11:49.315Z,8.50
2017-11-30T14:14:16.099Z,8.57
2017-11-30T14:16:42.878Z,8.93
2017-11-30T14:19:10.322Z,8.80
2017-11-30T14:21:37.116Z,10.50
2017-11-30T14:24:03.885Z,8.90
2017-11-30T14:26:30.658Z,9.20
2017-11-30T14:28:57.486Z,10.37
2017-11-30T14:31:24.268Z,8.90
2017-11-30T14:33:51.085Z,8.70
2017-11-30T14:36:17.950Z,10.70
2017-11-30T14:38:44.714Z,8.73
2017-11-30T14:41:11.475Z,10.53
2017-11-30T14:43:38.289Z,10.40
2017-11-30T14:46:05.054Z,9.97
2017-11-30T14:48:31.806Z,10.93
2017-11-30T14:50:58.619Z,10.43
2017-11-30T14:53:25.400Z,12.67
2017-11-30T14:55:52.168Z,11.30
2017-11-30T14:58:18.984Z,11.40
2017-11-30T15:00:45.731Z,10.37
2017-11-30T15:03:12.552Z,11.07
2017-11-30T15:05:39.386Z,11.20
2017-11-30T15:08:06.169Z,11.00
2017-11-30T15:10:32.924Z,10.27
2017-11-30T15:12:59.738Z,10.70
2017-11-30T15:15:26.550Z,11.30
2017-11-30T15:17:53.310Z,9.87
2017-11-30T15:20:20.102Z,13.30
2017-11-30T15:22:46.890Z,14.17
2017-11-30T15:25:13.634Z,10.83
2017-11-30T15:27:40.425Z,11.50
2017-11-30T15:30:07.192Z,11.53
2017-11-30T15:32:33.943Z,11.90
2017-11-30T15:35:00.728Z,9.80
2017-11-30T15:37:27.502Z,12.97
2017-11-30T15:39:54.263Z,9.67
2017-11-30T15:42:21.055Z,11.13
2017-11-30T15:44:47.826Z,12.15
2017-11-30T15:47:14.566Z,12.00
2017-11-30T15:49:41.599Z,11.07
2017-11-30T15:52:08.355Z,9.90
2017-11-30T15:54:35.098Z,12.60
2017-11-30T15:57:01.923Z,11.50
2017-11-30T15:59:28.704Z,10.50
2017-11-30T16:01:55.494Z,14.97
2017-11-30T16:04:22.358Z,12.17
2017-11-30T16:06:49.114Z,11.23
2017-11-30T16:09:15.871Z,9.73
2017-11-30T16:11:42.655Z,9.50
2017-11-30T16:14:09.429Z,9.10
2017-11-30T16:16:36.186Z,12.80
2017-11-30T16:19:03.001Z,9.23
2017-11-30T16:21:29.770Z,13.20
2017-11-30T16:23:56.592Z,12.23
2017-11-30T16:26:23.438Z,10.43
2017-11-30T16:28:50.226Z,11.93
2017-11-30T16:31:16.991Z,9.40
2017-11-30T16:33:43.781Z,15.67
2017-11-30T16:36:10.563Z,14.23
2017-11-30T16:38:37.363Z,10.83
2017-11-30T16:41:04.171Z,11.17
2017-11-30T16:43:30.968Z,12.37
2017-11-30T16:45:58.009Z,11.90
2017-11-30T16:48:24.840Z,12.17
2017-11-30T16:50:51.613Z,11.70
2017-11-30T16:53:18.405Z,11.07
2017-11-30T16:55:45.223Z,11.47
2017-11-30T16:58:11.983Z,11.30
2017-11-30T17:00:38.853Z,10.97
2017-11-30T17:03:05.704Z,10.33
2017-11-30T17:05:32.479Z,11.60
2017-11-30T17:07:59.262Z,10.40
2017-11-30T17:10:26.074Z,10.87
2017-11-30T17:12:52.858Z,10.63
2017-11-30T17:15:19.627Z,12.43
2017-11-30T17:17:46.429Z,11.73
2017-11-30T17:20:13.186Z,10.37
2017-11-30T17:22:39.949Z,11.20
2017-11-30T17:25:06.834Z,13.33
2017-11-30T17:27:33.591Z,12.37
2017-11-30T17:30:00.498Z,12.30
2017-11-30T17:32:27.351Z,10.90
2017-11-30T17:34:54.077Z,12.70
2017-11-30T17:37:20.863Z,11.00
2017-11-30T17:39:47.675Z,11.67
2017-11-30T17:42:14.443Z,11.50
2017-11-30T17:44:41.218Z,11.00
2017-11-30T17:47:08.007Z,13.53
2017-11-30T17:49:34.791Z,13.20
2017-11-30T17:52:01.545Z,14.13
2017-11-30T17:54:28.353Z,12.33
2017-11-30T17:56:55.168Z,13.30
2017-11-30T17:59:21.907Z,13.00
2017-11-30T18:01:48.692Z,10.67
2017-11-30T18:04:15.443Z,15.07
2017-11-30T18:06:42.214Z,13.37
2017-11-30T18:09:09.071Z,13.00
2017-11-30T18:11:35.844Z,8.73
2017-11-30T18:14:02.675Z,10.27
2017-11-30T18:16:29.475Z,11.07
2017-11-30T18:18:56.247Z,11.17
2017-11-30T18:21:23.020Z,9.87
2017-11-30T18:23:49.819Z,12.97
2017-11-30T18:26:16.570Z,14.07
2017-11-30T18:28:43.337Z,15.43
2017-11-30T18:31:10.145Z,14.63
2017-11-30T18:33:36.914Z,11.93
2017-11-30T18:36:03.701Z,11.17
2017-11-30T18:38:30.519Z,9.20
2017-11-30T18:40:57.271Z,10.97
2017-11-30T18:43:24.066Z,12.90
2017-11-30T18:45:50.889Z,12.70
2017-11-30T18:48:17.643Z,13.57
2017-11-30T18:50:44.411Z,12.10
2017-11-30T18:53:11.268Z,12.40
2017-11-30T18:55:38.060Z,18.83
2017-11-30T18:58:04.853Z,13.90
2017-11-30T19:00:31.631Z,12.97
2017-11-30T19:02:58.415Z,13.80
2017-11-30T19:05:25.177Z,12.27
2017-11-30T19:07:51.978Z,15.10
2017-11-30T19:10:18.722Z,16.17
2017-11-30T19:12:45.479Z,15.57
2017-11-30T19:15:12.298Z,17.20
2017-11-30T19:17:39.059Z,15.67
2017-11-30T19:20:05.846Z,16.60
2017-11-30T19:22:32.626Z,18.50
2017-11-30T19:24:59.421Z,16.80
2017-11-30T19:27:26.216Z,17.73
2017-11-30T19:29:53.031Z,16.67
2017-11-30T19:32:19.816Z,15.40
2017-11-30T19:34:46.622Z,14.43
2017-11-30T19:37:13.437Z,15.17
2017-11-30T19:39:40.188Z,14.43
2017-11-30T19:42:06.991Z,17.10
2017-11-30T19:44:33.795Z,17.90
2017-11-30T19:47:00.586Z,16.27
2017-11-30T19:49:27.403Z,16.50
2017-11-30T19:51:54.238Z,26.10
2017-11-30T19:54:21.020Z,22.87
2017-11-30T19:56:47.818Z,29.90
2017-11-30T19:59:14.608Z,35.40
2017-11-30T20:01:41.390Z,25.13
2017-11-30T20:04:08.210Z,23.60
2017-11-30T20:06:35.028Z,17.40
2017-11-30T20:09:01.793Z,16.73
2017-11-30T20:11:28.588Z,17.00
2017-11-30T20:13:55.416Z,14.00
2017-11-30T20:16:22.175Z,17.53
2017-11-30T20:18:48.931Z,14.40
2017-11-30T20:21:15.795Z,17.60
2017-11-30T20:23:42.594Z,15.60
2017-11-30T20:26:09.377Z,12.47
2017-11-30T20:28:36.155Z,14.17
2017-11-30T20:31:02.935Z,14.20
2017-11-30T20:33:29.690Z,15.27
2017-11-30T20:35:56.499Z,15.93
2017-11-30T20:38:23.302Z,14.67
2017-11-30T20:40:50.079Z,15.50
2017-11-30T20:43:16.888Z,17.33
2017-11-30T20:45:43.699Z,15.07
2017-11-30T20:48:10.475Z,13.07
2017-11-30T20:50:37.290Z,15.27
2017-11-30T20:53:04.060Z,16.63
2017-11-30T20:55:30.823Z,16.00
2017-11-30T20:57:57.618Z,15.43
2017-11-30T21:00:24.372Z,13.97
2017-11-30T21:02:51.135Z,17.43
2017-11-30T21:05:17.957Z,16.47
2017-11-30T21:07:44.761Z,16.10
2017-11-30T21:10:11.545Z,17.15
2017-11-30T21:12:38.362Z,18.83
2017-11-30T21:15:05.139Z,18.00
2017-11-30T21:17:31.890Z,31.60
2017-11-30T21:19:58.709Z,20.65
2017-11-30T21:22:25.485Z,17.40
2017-11-30T21:24:52.284Z,18.10
2017-11-30T21:27:19.101Z,26.55
2017-11-30T21:29:45.881Z,21.58
2017-11-30T21:32:12.689Z,19.93
2017-11-30T21:34:39.486Z,15.68
2017-11-30T21:37:06.295Z,18.50
2017-11-30T21:39:33.043Z,14.80
2017-11-30T21:41:59.848Z,15.93
2017-11-30T21:44:26.592Z,14.07
2017-11-30T21:46:53.360Z,14.83
2017-11-30T21:49:20.229Z,14.60
2017-11-30T21:51:46.997Z,12.23
2017-11-30T21:54:13.747Z,16.83
2017-11-30T21:56:40.539Z,13.10
2017-11-30T21:59:07.308Z,12.13
2017-11-30T22:01:34.086Z,15.47
2017-11-30T22:04:00.869Z,14.50
2017-11-30T22:06:27.679Z,15.13
2017-11-30T22:08:54.424Z,13.40
2017-11-30T22:11:21.223Z,10.70
2017-11-30T22:13:47.983Z,12.77
2017-11-30T22:16:14.745Z,9.87
2017-11-30T22:18:41.561Z,9.33
2017-11-30T22:21:08.323Z,10.25
2017-11-30T22:23:35.086Z,10.50
2017-11-30T22:26:01.919Z,10.27
2017-11-30T22:28:28.679Z,9.17
2017-11-30T22:30:55.431Z,6.77
2017-11-30T22:33:22.231Z,7.87
2017-11-30T22:35:48.997Z,7.27
2017-11-30T22:38:15.798Z,6.97
2017-11-30T22:40:42.590Z,4.70
2017-11-30T22:43:09.375Z,7.30
2017-11-30T22:45:36.150Z,4.17
2017-11-30T22:48:02.949Z,6.70
2017-11-30T22:50:29.714Z,6.00
2017-11-30T22:52:56.471Z,5.13
2017-11-30T22:55:23.256Z,4.90
2017-11-30T22:57:50.007Z,4.63
2017-11-30T23:00:16.752Z,7.03
2017-11-30T23:02:43.536Z,4.60
2017-11-30T23:05:10.305Z,6.80
2017-11-30T23:07:37.086Z,8.33
